sensor_id;sensor_type;location;lat;lon;timestamp;P1;durP1;ratioP1;P2;durP2;ratioP2
27161;SDS011;54464;50.558;9.704;2023-08-31T00:02:00;10.13;;;8.23;;
27161;SDS011;54464;50.558;9.704;2023-08-31T00:04:31;8.93;;;7.97;;
27161;SDS011;54464;50.558;9.704;2023-08-31T00:06:57;8.40;;;7.57;;
27161;SDS011;54464;50.558;9.704;2023-08-31T00:09:25;10.73;;;8.90;;
27161;SDS011;54464;50.558;9.704;2023-08-31T00:12:03;11.13;;;8.47;;
27161;SDS011;54464;50.558;9.704;2023-08-31T00:14:29;9.07;;;8.10;;
27161;SDS011;54464;50.558;9.704;2023-08-31T00:16:55;9.33;;;8.23;;
27161;SDS011;54464;50.558;9.704;2023-08-31T00:21:58;9.37;;;8.40;;
27161;SDS011;54464;50.558;9.704;2023-08-31T00:24:23;11.57;;;8.77;;
27161;SDS011;54464;50.558;9.704;2023-08-31T00:29:30;12.13;;;9.20;;
27161;SDS011;54464;50.558;9.704;2023-08-31T00:31:56;10.80;;;8.60;;
27161;SDS011;54464;50.558;9.704;2023-08-31T00:34:21;9.70;;;8.70;;
27161;SDS011;54464;50.558;9.704;2023-08-31T00:36:50;9.93;;;8.87;;
27161;SDS011;54464;50.558;9.704;2023-08-31T00:39:16;11.23;;;8.80;;
27161;SDS011;54464;50.558;9.704;2023-08-31T00:41:45;10.87;;;9.00;;
27161;SDS011;54464;50.558;9.704;2023-08-31T00:44:11;10.03;;;9.03;;
27161;SDS011;54464;50.558;9.704;2023-08-31T00:46:37;10.27;;;8.80;;
27161;SDS011;54464;50.558;9.704;2023-08-31T00:49:02;11.27;;;8.47;;
27161;SDS011;54464;50.558;9.704;2023-08-31T00:51:31;9.40;;;8.40;;
27161;SDS011;54464;50.558;9.704;2023-08-31T00:53:57;9.93;;;8.40;;
27161;SDS011;54464;50.558;9.704;2023-08-31T00:56:24;12.70;;;9.17;;
27161;SDS011;54464;50.558;9.704;2023-08-31T00:58:49;9.80;;;8.77;;
27161;SDS011;54464;50.558;9.704;2023-08-31T01:06:37;9.50;;;8.60;;
27161;SDS011;54464;50.558;9.704;2023-08-31T01:15:09;12.77;;;10.27;;
27161;SDS011;54464;50.558;9.704;2023-08-31T01:17:39;10.73;;;9.63;;
27161;SDS011;54464;50.558;9.704;2023-08-31T01:20:10;10.63;;;9.53;;
27161;SDS011;54464;50.558;9.704;2023-08-31T01:22:45;11.67;;;10.47;;
27161;SDS011;54464;50.558;9.704;2023-08-31T01:25:16;13.37;;;10.57;;
27161;SDS011;54464;50.558;9.704;2023-08-31T01:27:42;15.23;;;11.13;;
27161;SDS011;54464;50.558;9.704;2023-08-31T01:30:08;13.50;;;10.60;;
27161;SDS011;54464;50.558;9.704;2023-08-31T01:32:34;13.83;;;11.47;;
27161;SDS011;54464;50.558;9.704;2023-08-31T01:35:00;14.10;;;10.83;;
27161;SDS011;54464;50.558;9.704;2023-08-31T01:37:34;13.97;;;10.37;;
27161;SDS011;54464;50.558;9.704;2023-08-31T01:40:14;11.90;;;10.17;;
27161;SDS011;54464;50.558;9.704;2023-08-31T01:43:19;13.47;;;10.03;;
27161;SDS011;54464;50.558;9.704;2023-08-31T01:45:47;13.57;;;10.87;;
27161;SDS011;54464;50.558;9.704;2023-08-31T01:48:14;12.53;;;10.80;;
27161;SDS011;54464;50.558;9.704;2023-08-31T01:50:39;12.10;;;10.70;;
27161;SDS011;54464;50.558;9.704;2023-08-31T01:53:05;13.07;;;10.57;;
27161;SDS011;54464;50.558;9.704;2023-08-31T01:55:32;11.73;;;10.27;;
27161;SDS011;54464;50.558;9.704;2023-08-31T01:57:58;13.40;;;9.73;;
27161;SDS011;54464;50.558;9.704;2023-08-31T02:00:24;11.57;;;10.37;;
27161;SDS011;54464;50.558;9.704;2023-08-31T02:02:51;11.60;;;10.23;;
27161;SDS011;54464;50.558;9.704;2023-08-31T02:05:16;12.10;;;10.80;;
27161;SDS011;54464;50.558;9.704;2023-08-31T02:07:43;13.57;;;11.10;;
27161;SDS011;54464;50.558;9.704;2023-08-31T02:10:08;15.20;;;12.33;;
27161;SDS011;54464;50.558;9.704;2023-08-31T02:12:34;13.80;;;11.70;;
27161;SDS011;54464;50.558;9.704;2023-08-31T02:15:01;15.03;;;11.63;;
27161;SDS011;54464;50.558;9.704;2023-08-31T02:17:31;14.43;;;12.73;;
27161;SDS011;54464;50.558;9.704;2023-08-31T02:19:56;15.17;;;13.10;;
27161;SDS011;54464;50.558;9.704;2023-08-31T02:22:23;17.57;;;13.03;;
27161;SDS011;54464;50.558;9.704;2023-08-31T02:24:48;16.60;;;13.33;;
27161;SDS011;54464;50.558;9.704;2023-08-31T02:27:14;16.00;;;12.50;;
27161;SDS011;54464;50.558;9.704;2023-08-31T02:29:39;12.77;;;11.00;;
27161;SDS011;54464;50.558;9.704;2023-08-31T02:32:05;12.57;;;10.70;;
27161;SDS011;54464;50.558;9.704;2023-08-31T02:34:31;11.33;;;10.13;;
27161;SDS011;54464;50.558;9.704;2023-08-31T02:36:57;12.53;;;10.93;;
27161;SDS011;54464;50.558;9.704;2023-08-31T02:39:22;11.90;;;10.20;;
27161;SDS011;54464;50.558;9.704;2023-08-31T02:41:48;14.20;;;11.40;;
27161;SDS011;54464;50.558;9.704;2023-08-31T02:44:14;14.80;;;11.83;;
27161;SDS011;54464;50.558;9.704;2023-08-31T02:46:39;13.13;;;11.80;;
27161;SDS011;54464;50.558;9.704;2023-08-31T02:49:05;14.63;;;12.00;;
27161;SDS011;54464;50.558;9.704;2023-08-31T02:51:30;16.47;;;12.30;;
27161;SDS011;54464;50.558;9.704;2023-08-31T02:53:56;13.97;;;12.27;;
27161;SDS011;54464;50.558;9.704;2023-08-31T02:56:22;16.47;;;13.47;;
27161;SDS011;54464;50.558;9.704;2023-08-31T02:58:48;16.57;;;13.83;;
27161;SDS011;54464;50.558;9.704;2023-08-31T03:01:13;15.60;;;13.67;;
27161;SDS011;54464;50.558;9.704;2023-08-31T03:03:42;20.70;;;14.87;;
27161;SDS011;54464;50.558;9.704;2023-08-31T03:06:10;17.07;;;14.90;;
27161;SDS011;54464;50.558;9.704;2023-08-31T03:08:36;16.87;;;14.03;;
27161;SDS011;54464;50.558;9.704;2023-08-31T03:11:02;16.07;;;13.77;;
27161;SDS011;54464;50.558;9.704;2023-08-31T03:13:28;17.27;;;14.30;;
27161;SDS011;54464;50.558;9.704;2023-08-31T03:15:54;18.00;;;14.30;;
27161;SDS011;54464;50.558;9.704;2023-08-31T03:18:21;16.20;;;14.03;;
27161;SDS011;54464;50.558;9.704;2023-08-31T03:20:47;17.60;;;14.67;;
27161;SDS011;54464;50.558;9.704;2023-08-31T03:23:13;15.80;;;14.03;;
27161;SDS011;54464;50.558;9.704;2023-08-31T03:25:38;15.60;;;13.90;;
27161;SDS011;54464;50.558;9.704;2023-08-31T03:28:04;16.47;;;14.73;;
27161;SDS011;54464;50.558;9.704;2023-08-31T03:30:30;17.43;;;14.00;;
27161;SDS011;54464;50.558;9.704;2023-08-31T03:32:55;15.77;;;13.70;;
27161;SDS011;54464;50.558;9.704;2023-08-31T03:35:21;15.30;;;13.63;;
27161;SDS011;54464;50.558;9.704;2023-08-31T03:37:51;14.23;;;12.40;;
27161;SDS011;54464;50.558;9.704;2023-08-31T03:40:17;16.37;;;13.57;;
27161;SDS011;54464;50.558;9.704;2023-08-31T03:42:43;15.87;;;13.13;;
27161;SDS011;54464;50.558;9.704;2023-08-31T03:45:08;15.87;;;14.17;;
27161;SDS011;54464;50.558;9.704;2023-08-31T03:47:34;15.83;;;14.10;;
27161;SDS011;54464;50.558;9.704;2023-08-31T03:49:59;15.97;;;13.93;;
27161;SDS011;54464;50.558;9.704;2023-08-31T03:52:25;16.20;;;14.13;;
27161;SDS011;54464;50.558;9.704;2023-08-31T03:54:51;18.27;;;14.93;;
27161;SDS011;54464;50.558;9.704;2023-08-31T03:57:17;22.73;;;15.40;;
27161;SDS011;54464;50.558;9.704;2023-08-31T03:59:43;19.20;;;15.47;;
27161;SDS011;54464;50.558;9.704;2023-08-31T04:02:09;18.77;;;15.73;;
27161;SDS011;54464;50.558;9.704;2023-08-31T04:04:34;19.63;;;16.17;;
27161;SDS011;54464;50.558;9.704;2023-08-31T04:07:00;20.17;;;15.60;;
27161;SDS011;54464;50.558;9.704;2023-08-31T04:09:25;22.00;;;16.67;;
27161;SDS011;54464;50.558;9.704;2023-08-31T04:11:51;22.17;;;16.67;;
27161;SDS011;54464;50.558;9.704;2023-08-31T04:14:19;22.10;;;16.83;;
27161;SDS011;54464;50.558;9.704;2023-08-31T04:16:44;21.90;;;16.83;;
27161;SDS011;54464;50.558;9.704;2023-08-31T04:19:14;21.00;;;16.83;;
27161;SDS011;54464;50.558;9.704;2023-08-31T04:21:40;35.73;;;24.90;;
27161;SDS011;54464;50.558;9.704;2023-08-31T04:24:05;19.43;;;15.70;;
27161;SDS011;54464;50.558;9.704;2023-08-31T04:26:31;22.23;;;16.30;;
27161;SDS011;54464;50.558;9.704;2023-08-31T04:28:56;20.40;;;17.80;;
27161;SDS011;54464;50.558;9.704;2023-08-31T04:31:22;20.70;;;17.90;;
27161;SDS011;54464;50.558;9.704;2023-08-31T04:33:48;22.03;;;19.50;;
27161;SDS011;54464;50.558;9.704;2023-08-31T04:36:18;20.43;;;16.67;;
27161;SDS011;54464;50.558;9.704;2023-08-31T04:38:44;22.30;;;18.53;;
27161;SDS011;54464;50.558;9.704;2023-08-31T04:41:10;21.50;;;17.17;;
27161;SDS011;54464;50.558;9.704;2023-08-31T04:43:35;19.73;;;15.50;;
27161;SDS011;54464;50.558;9.704;2023-08-31T04:46:01;20.77;;;15.67;;
27161;SDS011;54464;50.558;9.704;2023-08-31T04:48:28;19.57;;;15.83;;
27161;SDS011;54464;50.558;9.704;2023-08-31T04:50:57;19.00;;;13.83;;
27161;SDS011;54464;50.558;9.704;2023-08-31T04:53:23;19.93;;;15.50;;
27161;SDS011;54464;50.558;9.704;2023-08-31T04:55:49;16.23;;;14.23;;
27161;SDS011;54464;50.558;9.704;2023-08-31T04:58:14;17.37;;;13.97;;
27161;SDS011;54464;50.558;9.704;2023-08-31T05:00:40;18.50;;;14.53;;
27161;SDS011;54464;50.558;9.704;2023-08-31T05:03:05;17.90;;;14.73;;
27161;SDS011;54464;50.558;9.704;2023-08-31T05:05:31;17.63;;;14.47;;
27161;SDS011;54464;50.558;9.704;2023-08-31T05:07:56;19.87;;;13.83;;
27161;SDS011;54464;50.558;9.704;2023-08-31T05:10:23;17.83;;;15.07;;
27161;SDS011;54464;50.558;9.704;2023-08-31T05:12:49;17.63;;;14.90;;
27161;SDS011;54464;50.558;9.704;2023-08-31T05:15:15;18.93;;;14.77;;
27161;SDS011;54464;50.558;9.704;2023-08-31T05:17:41;20.43;;;15.23;;
27161;SDS011;54464;50.558;9.704;2023-08-31T05:20:07;18.10;;;13.97;;
27161;SDS011;54464;50.558;9.704;2023-08-31T05:22:34;17.43;;;14.63;;
27161;SDS011;54464;50.558;9.704;2023-08-31T05:25:00;19.57;;;14.90;;
27161;SDS011;54464;50.558;9.704;2023-08-31T05:27:26;22.50;;;15.93;;
27161;SDS011;54464;50.558;9.704;2023-08-31T05:29:51;22.80;;;15.07;;
27161;SDS011;54464;50.558;9.704;2023-08-31T05:32:17;20.07;;;15.63;;
27161;SDS011;54464;50.558;9.704;2023-08-31T05:34:43;18.23;;;14.70;;
27161;SDS011;54464;50.558;9.704;2023-08-31T05:37:08;21.57;;;15.13;;
27161;SDS011;54464;50.558;9.704;2023-08-31T05:39:34;20.33;;;14.77;;
27161;SDS011;54464;50.558;9.704;2023-08-31T05:42:00;17.70;;;14.03;;
27161;SDS011;54464;50.558;9.704;2023-08-31T05:44:26;17.20;;;14.23;;
27161;SDS011;54464;50.558;9.704;2023-08-31T05:46:51;17.90;;;13.77;;
27161;SDS011;54464;50.558;9.704;2023-08-31T05:49:17;16.97;;;13.70;;
27161;SDS011;54464;50.558;9.704;2023-08-31T05:51:43;19.17;;;13.60;;
27161;SDS011;54464;50.558;9.704;2023-08-31T05:54:08;15.53;;;13.90;;
27161;SDS011;54464;50.558;9.704;2023-08-31T05:56:37;17.70;;;13.57;;
27161;SDS011;54464;50.558;9.704;2023-08-31T05:59:04;17.87;;;12.83;;
27161;SDS011;54464;50.558;9.704;2023-08-31T06:01:34;17.53;;;12.87;;
27161;SDS011;54464;50.558;9.704;2023-08-31T06:04:01;15.37;;;12.77;;
27161;SDS011;54464;50.558;9.704;2023-08-31T06:06:30;16.17;;;12.93;;
27161;SDS011;54464;50.558;9.704;2023-08-31T06:08:57;16.83;;;13.10;;
27161;SDS011;54464;50.558;9.704;2023-08-31T06:11:23;16.37;;;13.57;;
27161;SDS011;54464;50.558;9.704;2023-08-31T06:13:48;16.50;;;13.70;;
27161;SDS011;54464;50.558;9.704;2023-08-31T06:16:14;15.13;;;13.33;;
27161;SDS011;54464;50.558;9.704;2023-08-31T06:18:40;20.00;;;12.80;;
27161;SDS011;54464;50.558;9.704;2023-08-31T06:21:05;15.37;;;12.70;;
27161;SDS011;54464;50.558;9.704;2023-08-31T06:23:31;16.43;;;13.37;;
27161;SDS011;54464;50.558;9.704;2023-08-31T06:25:56;14.00;;;12.50;;
27161;SDS011;54464;50.558;9.704;2023-08-31T06:28:22;15.47;;;11.83;;
27161;SDS011;54464;50.558;9.704;2023-08-31T06:30:48;14.23;;;11.57;;
27161;SDS011;54464;50.558;9.704;2023-08-31T06:33:14;15.50;;;12.80;;
27161;SDS011;54464;50.558;9.704;2023-08-31T06:35:40;14.33;;;12.03;;
27161;SDS011;54464;50.558;9.704;2023-08-31T06:38:05;13.60;;;11.27;;
27161;SDS011;54464;50.558;9.704;2023-08-31T06:40:31;14.83;;;11.13;;
27161;SDS011;54464;50.558;9.704;2023-08-31T06:42:57;12.10;;;10.43;;
27161;SDS011;54464;50.558;9.704;2023-08-31T06:45:22;12.87;;;10.37;;
27161;SDS011;54464;50.558;9.704;2023-08-31T06:47:48;10.03;;;8.57;;
27161;SDS011;54464;50.558;9.704;2023-08-31T06:50:14;10.90;;;9.80;;
27161;SDS011;54464;50.558;9.704;2023-08-31T06:52:39;10.20;;;9.20;;
27161;SDS011;54464;50.558;9.704;2023-08-31T06:55:06;9.63;;;8.57;;
27161;SDS011;54464;50.558;9.704;2023-08-31T06:57:36;9.53;;;7.97;;
27161;SDS011;54464;50.558;9.704;2023-08-31T07:00:02;7.07;;;6.37;;
27161;SDS011;54464;50.558;9.704;2023-08-31T07:02:29;8.87;;;6.73;;
27161;SDS011;54464;50.558;9.704;2023-08-31T07:04:54;7.70;;;5.70;;
27161;SDS011;54464;50.558;9.704;2023-08-31T07:07:20;6.57;;;5.87;;
27161;SDS011;54464;50.558;9.704;2023-08-31T07:09:47;7.03;;;5.83;;
27161;SDS011;54464;50.558;9.704;2023-08-31T07:12:16;6.90;;;5.50;;
27161;SDS011;54464;50.558;9.704;2023-08-31T07:14:41;7.93;;;5.30;;
27161;SDS011;54464;50.558;9.704;2023-08-31T07:17:07;5.57;;;5.07;;
27161;SDS011;54464;50.558;9.704;2023-08-31T07:19:36;6.27;;;5.17;;
27161;SDS011;54464;50.558;9.704;2023-08-31T07:22:02;6.20;;;4.97;;
27161;SDS011;54464;50.558;9.704;2023-08-31T07:24:29;6.00;;;4.97;;
27161;SDS011;54464;50.558;9.704;2023-08-31T07:26:55;7.00;;;5.00;;
27161;SDS011;54464;50.558;9.704;2023-08-31T07:29:20;5.93;;;4.80;;
27161;SDS011;54464;50.558;9.704;2023-08-31T07:31:46;8.87;;;5.27;;
27161;SDS011;54464;50.558;9.704;2023-08-31T07:34:12;6.13;;;4.73;;
27161;SDS011;54464;50.558;9.704;2023-08-31T07:36:38;6.23;;;5.00;;
27161;SDS011;54464;50.558;9.704;2023-08-31T07:39:04;5.37;;;4.87;;
27161;SDS011;54464;50.558;9.704;2023-08-31T07:41:30;7.73;;;5.47;;
27161;SDS011;54464;50.558;9.704;2023-08-31T07:43:55;5.83;;;4.97;;
27161;SDS011;54464;50.558;9.704;2023-08-31T07:46:21;6.53;;;5.60;;
27161;SDS011;54464;50.558;9.704;2023-08-31T07:48:46;6.53;;;5.60;;
27161;SDS011;54464;50.558;9.704;2023-08-31T07:51:13;6.40;;;5.57;;
27161;SDS011;54464;50.558;9.704;2023-08-31T07:53:39;6.53;;;5.40;;
27161;SDS011;54464;50.558;9.704;2023-08-31T07:56:05;8.40;;;5.63;;
27161;SDS011;54464;50.558;9.704;2023-08-31T07:58:30;7.47;;;5.40;;
27161;SDS011;54464;50.558;9.704;2023-08-31T08:00:56;6.07;;;5.47;;
27161;SDS011;54464;50.558;9.704;2023-08-31T08:03:22;6.13;;;5.13;;
27161;SDS011;54464;50.558;9.704;2023-08-31T08:05:48;6.37;;;5.00;;
27161;SDS011;54464;50.558;9.704;2023-08-31T08:08:13;6.53;;;5.20;;
27161;SDS011;54464;50.558;9.704;2023-08-31T08:10:39;7.83;;;5.57;;
27161;SDS011;54464;50.558;9.704;2023-08-31T08:13:05;7.53;;;4.90;;
27161;SDS011;54464;50.558;9.704;2023-08-31T08:15:31;5.33;;;4.33;;
27161;SDS011;54464;50.558;9.704;2023-08-31T08:17:56;5.13;;;4.33;;
27161;SDS011;54464;50.558;9.704;2023-08-31T08:20:22;9.23;;;5.23;;
27161;SDS011;54464;50.558;9.704;2023-08-31T08:22:49;7.17;;;5.20;;
27161;SDS011;54464;50.558;9.704;2023-08-31T08:25:18;5.90;;;4.20;;
27161;SDS011;54464;50.558;9.704;2023-08-31T08:27:44;8.07;;;4.40;;
27161;SDS011;54464;50.558;9.704;2023-08-31T08:30:10;5.47;;;4.67;;
27161;SDS011;54464;50.558;9.704;2023-08-31T08:32:35;7.47;;;4.90;;
27161;SDS011;54464;50.558;9.704;2023-08-31T08:35:01;6.87;;;4.33;;
27161;SDS011;54464;50.558;9.704;2023-08-31T08:37:27;4.50;;;3.80;;
27161;SDS011;54464;50.558;9.704;2023-08-31T08:39:54;4.20;;;3.30;;
27161;SDS011;54464;50.558;9.704;2023-08-31T08:42:20;3.90;;;3.07;;
27161;SDS011;54464;50.558;9.704;2023-08-31T08:44:49;5.60;;;3.30;;
27161;SDS011;54464;50.558;9.704;2023-08-31T08:47:15;4.53;;;3.50;;
27161;SDS011;54464;50.558;9.704;2023-08-31T08:49:42;4.50;;;3.10;;
27161;SDS011;54464;50.558;9.704;2023-08-31T08:52:08;3.53;;;2.90;;
27161;SDS011;54464;50.558;9.704;2023-08-31T08:54:34;4.83;;;3.13;;
27161;SDS011;54464;50.558;9.704;2023-08-31T08:57:00;3.63;;;2.70;;
27161;SDS011;54464;50.558;9.704;2023-08-31T08:59:26;4.27;;;3.00;;
27161;SDS011;54464;50.558;9.704;2023-08-31T09:01:52;3.67;;;2.53;;
27161;SDS011;54464;50.558;9.704;2023-08-31T09:04:18;2.87;;;2.50;;
27161;SDS011;54464;50.558;9.704;2023-08-31T09:06:44;3.40;;;2.50;;
27161;SDS011;54464;50.558;9.704;2023-08-31T09:09:10;4.13;;;2.93;;
27161;SDS011;54464;50.558;9.704;2023-08-31T09:11:35;3.17;;;2.40;;
27161;SDS011;54464;50.558;9.704;2023-08-31T09:14:20;3.90;;;2.63;;
27161;SDS011;54464;50.558;9.704;2023-08-31T09:16:46;3.07;;;2.53;;
27161;SDS011;54464;50.558;9.704;2023-08-31T09:19:20;3.93;;;2.53;;
27161;SDS011;54464;50.558;9.704;2023-08-31T09:21:47;4.47;;;3.00;;
27161;SDS011;54464;50.558;9.704;2023-08-31T09:24:13;3.53;;;2.60;;
27161;SDS011;54464;50.558;9.704;2023-08-31T09:26:46;4.30;;;2.37;;
27161;SDS011;54464;50.558;9.704;2023-08-31T09:29:14;3.83;;;2.47;;
27161;SDS011;54464;50.558;9.704;2023-08-31T09:31:43;5.03;;;3.03;;
27161;SDS011;54464;50.558;9.704;2023-08-31T09:34:15;4.67;;;2.50;;
27161;SDS011;54464;50.558;9.704;2023-08-31T09:36:42;3.90;;;2.20;;
27161;SDS011;54464;50.558;9.704;2023-08-31T09:39:09;5.87;;;2.30;;
27161;SDS011;54464;50.558;9.704;2023-08-31T09:41:36;3.70;;;2.17;;
27161;SDS011;54464;50.558;9.704;2023-08-31T09:44:18;4.27;;;2.00;;
27161;SDS011;54464;50.558;9.704;2023-08-31T09:46:44;4.50;;;2.50;;
27161;SDS011;54464;50.558;9.704;2023-08-31T09:49:14;4.73;;;2.57;;
27161;SDS011;54464;50.558;9.704;2023-08-31T09:51:44;4.60;;;2.83;;
27161;SDS011;54464;50.558;9.704;2023-08-31T09:54:15;3.90;;;2.57;;
27161;SDS011;54464;50.558;9.704;2023-08-31T09:56:42;4.37;;;2.97;;
27161;SDS011;54464;50.558;9.704;2023-08-31T09:59:12;5.47;;;2.77;;
27161;SDS011;54464;50.558;9.704;2023-08-31T10:01:43;4.63;;;2.40;;
27161;SDS011;54464;50.558;9.704;2023-08-31T10:04:10;4.53;;;2.53;;
27161;SDS011;54464;50.558;9.704;2023-08-31T10:06:40;4.27;;;2.70;;
27161;SDS011;54464;50.558;9.704;2023-08-31T10:09:07;4.97;;;3.50;;
27161;SDS011;54464;50.558;9.704;2023-08-31T10:11:37;4.77;;;4.03;;
27161;SDS011;54464;50.558;9.704;2023-08-31T10:14:04;6.20;;;4.60;;
27161;SDS011;54464;50.558;9.704;2023-08-31T10:16:30;8.13;;;4.20;;
27161;SDS011;54464;50.558;9.704;2023-08-31T10:18:57;5.87;;;4.57;;
27161;SDS011;54464;50.558;9.704;2023-08-31T10:21:23;6.87;;;4.57;;
27161;SDS011;54464;50.558;9.704;2023-08-31T10:23:49;6.77;;;4.47;;
27161;SDS011;54464;50.558;9.704;2023-08-31T10:26:25;6.17;;;4.63;;
27161;SDS011;54464;50.558;9.704;2023-08-31T10:28:53;5.67;;;4.87;;
27161;SDS011;54464;50.558;9.704;2023-08-31T10:31:19;5.70;;;4.00;;
27161;SDS011;54464;50.558;9.704;2023-08-31T10:36:20;4.30;;;3.40;;
27161;SDS011;54464;50.558;9.704;2023-08-31T10:38:46;3.40;;;3.10;;
27161;SDS011;54464;50.558;9.704;2023-08-31T10:41:29;4.53;;;3.50;;
27161;SDS011;54464;50.558;9.704;2023-08-31T10:43:58;4.13;;;3.60;;
27161;SDS011;54464;50.558;9.704;2023-08-31T10:51:37;5.00;;;3.57;;
27161;SDS011;54464;50.558;9.704;2023-08-31T10:59:46;4.70;;;2.90;;
27161;SDS011;54464;50.558;9.704;2023-08-31T11:02:35;4.33;;;2.43;;
27161;SDS011;54464;50.558;9.704;2023-08-31T11:05:11;3.70;;;2.37;;
27161;SDS011;54464;50.558;9.704;2023-08-31T11:07:41;3.80;;;2.10;;
27161;SDS011;54464;50.558;9.704;2023-08-31T11:10:12;2.57;;;2.37;;
27161;SDS011;54464;50.558;9.704;2023-08-31T11:12:49;3.00;;;2.07;;
27161;SDS011;54464;50.558;9.704;2023-08-31T11:15:18;4.77;;;1.90;;
27161;SDS011;54464;50.558;9.704;2023-08-31T11:17:44;3.33;;;1.80;;
27161;SDS011;54464;50.558;9.704;2023-08-31T11:20:15;4.57;;;1.53;;
27161;SDS011;54464;50.558;9.704;2023-08-31T11:22:46;2.30;;;1.80;;
27161;SDS011;54464;50.558;9.704;2023-08-31T11:25:21;2.37;;;1.50;;
27161;SDS011;54464;50.558;9.704;2023-08-31T11:30:25;3.07;;;1.90;;
27161;SDS011;54464;50.558;9.704;2023-08-31T11:32:52;3.17;;;2.00;;
27161;SDS011;54464;50.558;9.704;2023-08-31T11:35:18;4.20;;;2.27;;
27161;SDS011;54464;50.558;9.704;2023-08-31T11:37:49;3.47;;;2.10;;
27161;SDS011;54464;50.558;9.704;2023-08-31T11:40:16;3.97;;;2.50;;
27161;SDS011;54464;50.558;9.704;2023-08-31T11:42:42;3.17;;;2.00;;
27161;SDS011;54464;50.558;9.704;2023-08-31T11:45:07;6.43;;;2.10;;
27161;SDS011;54464;50.558;9.704;2023-08-31T11:47:35;2.93;;;2.20;;
27161;SDS011;54464;50.558;9.704;2023-08-31T11:50:01;3.47;;;2.20;;
27161;SDS011;54464;50.558;9.704;2023-08-31T11:52:30;2.90;;;2.13;;
27161;SDS011;54464;50.558;9.704;2023-08-31T11:54:56;4.57;;;2.70;;
27161;SDS011;54464;50.558;9.704;2023-08-31T11:57:25;2.80;;;1.90;;
27161;SDS011;54464;50.558;9.704;2023-08-31T11:59:51;2.37;;;2.17;;
27161;SDS011;54464;50.558;9.704;2023-08-31T12:02:18;3.07;;;1.90;;
27161;SDS011;54464;50.558;9.704;2023-08-31T12:04:44;3.50;;;1.83;;
27161;SDS011;54464;50.558;9.704;2023-08-31T12:07:11;4.57;;;1.93;;
27161;SDS011;54464;50.558;9.704;2023-08-31T12:09:40;2.23;;;1.70;;
27161;SDS011;54464;50.558;9.704;2023-08-31T12:12:07;3.07;;;1.70;;
27161;SDS011;54464;50.558;9.704;2023-08-31T12:14:33;3.60;;;1.67;;
27161;SDS011;54464;50.558;9.704;2023-08-31T12:17:02;3.50;;;1.90;;
27161;SDS011;54464;50.558;9.704;2023-08-31T12:19:32;2.53;;;2.20;;
27161;SDS011;54464;50.558;9.704;2023-08-31T12:21:58;3.60;;;1.50;;
27161;SDS011;54464;50.558;9.704;2023-08-31T12:24:24;2.43;;;1.63;;
27161;SDS011;54464;50.558;9.704;2023-08-31T12:26:50;1.97;;;1.30;;
27161;SDS011;54464;50.558;9.704;2023-08-31T12:29:18;2.50;;;1.70;;
27161;SDS011;54464;50.558;9.704;2023-08-31T12:31:44;3.23;;;1.47;;
27161;SDS011;54464;50.558;9.704;2023-08-31T12:34:10;3.17;;;1.60;;
27161;SDS011;54464;50.558;9.704;2023-08-31T12:36:36;2.47;;;1.70;;
27161;SDS011;54464;50.558;9.704;2023-08-31T12:39:03;3.27;;;1.90;;
27161;SDS011;54464;50.558;9.704;2023-08-31T12:41:32;3.20;;;1.70;;
27161;SDS011;54464;50.558;9.704;2023-08-31T12:43:58;4.93;;;1.80;;
27161;SDS011;54464;50.558;9.704;2023-08-31T12:46:24;4.23;;;1.80;;
27161;SDS011;54464;50.558;9.704;2023-08-31T12:48:50;3.57;;;1.77;;
27161;SDS011;54464;50.558;9.704;2023-08-31T12:51:16;2.13;;;1.73;;
27161;SDS011;54464;50.558;9.704;2023-08-31T12:53:43;3.50;;;1.80;;
27161;SDS011;54464;50.558;9.704;2023-08-31T12:56:08;3.57;;;1.90;;
27161;SDS011;54464;50.558;9.704;2023-08-31T12:58:34;2.83;;;1.40;;
27161;SDS011;54464;50.558;9.704;2023-08-31T13:00:59;3.30;;;1.77;;
27161;SDS011;54464;50.558;9.704;2023-08-31T13:03:25;4.57;;;1.80;;
27161;SDS011;54464;50.558;9.704;2023-08-31T13:05:51;4.03;;;1.90;;
27161;SDS011;54464;50.558;9.704;2023-08-31T13:08:17;2.77;;;1.70;;
27161;SDS011;54464;50.558;9.704;2023-08-31T13:10:43;4.57;;;1.80;;
27161;SDS011;54464;50.558;9.704;2023-08-31T13:13:08;2.73;;;1.50;;
27161;SDS011;54464;50.558;9.704;2023-08-31T13:15:34;2.90;;;1.30;;
27161;SDS011;54464;50.558;9.704;2023-08-31T13:18:00;3.50;;;1.50;;
27161;SDS011;54464;50.558;9.704;2023-08-31T13:20:26;2.83;;;2.17;;
27161;SDS011;54464;50.558;9.704;2023-08-31T13:22:52;3.17;;;1.70;;
27161;SDS011;54464;50.558;9.704;2023-08-31T13:25:18;2.33;;;1.73;;
27161;SDS011;54464;50.558;9.704;2023-08-31T13:27:44;2.47;;;1.63;;
27161;SDS011;54464;50.558;9.704;2023-08-31T13:30:09;2.73;;;1.60;;
27161;SDS011;54464;50.558;9.704;2023-08-31T13:32:37;2.50;;;1.40;;
27161;SDS011;54464;50.558;9.704;2023-08-31T13:35:03;5.23;;;1.70;;
27161;SDS011;54464;50.558;9.704;2023-08-31T13:37:32;3.80;;;1.80;;
27161;SDS011;54464;50.558;9.704;2023-08-31T13:40:00;3.23;;;1.80;;
27161;SDS011;54464;50.558;9.704;2023-08-31T13:42:33;3.60;;;1.83;;
27161;SDS011;54464;50.558;9.704;2023-08-31T13:44:59;4.10;;;2.17;;
27161;SDS011;54464;50.558;9.704;2023-08-31T13:47:25;3.33;;;2.10;;
27161;SDS011;54464;50.558;9.704;2023-08-31T13:49:51;3.37;;;2.00;;
27161;SDS011;54464;50.558;9.704;2023-08-31T13:52:16;3.03;;;1.77;;
27161;SDS011;54464;50.558;9.704;2023-08-31T13:54:42;2.80;;;1.67;;
27161;SDS011;54464;50.558;9.704;2023-08-31T13:57:08;2.83;;;1.60;;
27161;SDS011;54464;50.558;9.704;2023-08-31T13:59:34;2.67;;;1.60;;
27161;SDS011;54464;50.558;9.704;2023-08-31T14:01:59;2.63;;;1.33;;
27161;SDS011;54464;50.558;9.704;2023-08-31T14:04:25;2.63;;;1.60;;
27161;SDS011;54464;50.558;9.704;2023-08-31T14:06:50;2.43;;;1.20;;
27161;SDS011;54464;50.558;9.704;2023-08-31T14:09:16;2.70;;;1.50;;
27161;SDS011;54464;50.558;9.704;2023-08-31T14:11:43;3.00;;;1.67;;
27161;SDS011;54464;50.558;9.704;2023-08-31T14:14:09;2.60;;;1.27;;
27161;SDS011;54464;50.558;9.704;2023-08-31T14:16:36;1.70;;;1.13;;
27161;SDS011;54464;50.558;9.704;2023-08-31T14:19:02;1.77;;;1.30;;
27161;SDS011;54464;50.558;9.704;2023-08-31T14:21:29;1.77;;;1.20;;
27161;SDS011;54464;50.558;9.704;2023-08-31T14:23:55;3.03;;;1.20;;
27161;SDS011;54464;50.558;9.704;2023-08-31T14:26:23;3.13;;;1.30;;
27161;SDS011;54464;50.558;9.704;2023-08-31T14:28:50;2.63;;;1.37;;
27161;SDS011;54464;50.558;9.704;2023-08-31T14:31:16;3.27;;;1.40;;
27161;SDS011;54464;50.558;9.704;2023-08-31T14:33:42;2.07;;;1.10;;
27161;SDS011;54464;50.558;9.704;2023-08-31T14:36:08;3.10;;;1.47;;
27161;SDS011;54464;50.558;9.704;2023-08-31T14:38:34;2.57;;;1.40;;
27161;SDS011;54464;50.558;9.704;2023-08-31T14:41:00;4.43;;;1.27;;
27161;SDS011;54464;50.558;9.704;2023-08-31T14:43:25;2.90;;;1.50;;
27161;SDS011;54464;50.558;9.704;2023-08-31T14:45:51;1.97;;;1.50;;
27161;SDS011;54464;50.558;9.704;2023-08-31T14:48:16;3.57;;;1.60;;
27161;SDS011;54464;50.558;9.704;2023-08-31T14:50:43;2.70;;;1.30;;
27161;SDS011;54464;50.558;9.704;2023-08-31T14:53:09;2.57;;;1.50;;
27161;SDS011;54464;50.558;9.704;2023-08-31T14:55:35;3.60;;;1.50;;
27161;SDS011;54464;50.558;9.704;2023-08-31T14:58:01;2.90;;;1.50;;
27161;SDS011;54464;50.558;9.704;2023-08-31T15:00:27;2.70;;;1.53;;
27161;SDS011;54464;50.558;9.704;2023-08-31T15:02:56;2.67;;;1.63;;
27161;SDS011;54464;50.558;9.704;2023-08-31T15:05:28;4.23;;;1.80;;
27161;SDS011;54464;50.558;9.704;2023-08-31T15:07:55;2.27;;;1.50;;
27161;SDS011;54464;50.558;9.704;2023-08-31T15:10:21;2.57;;;1.37;;